Airfield :
LOGIN :

Register | Disclaimer

   EN    FR    IT 

 










Legend :    VFR   Marginal VFR   IFR   Intensive IFR   Very Intensive IFR
Visi :
Ceiling :
>= 8 km
>= 3000ft
5 to 8 km
1000 to 3000 ft
1500m to 5 km
500 to 1000 ft
800 to 1500m
200 to 500 ft
< 800m
< 200 ft
Symbols :   Thunderstorms  Fog  Heavy snow  Heavy precipitations  Wind > 20 kt
SIGMETs :     Misc.  Thunderstorms  Icing  Turbulence  Mountain Waves  Volcanic Ashes






- Airport Elevation : 9 ft
- IATA code : ALF


ENAT - Alta

CURRENT METAR :
  • 050350Z AUTO VRB02KT 9999 R11///// R29/P2000N // NCD 08/05 Q1000 RMK WIND 700FT VRB02KT

EXPIRED METARs :
  • 050320Z AUTO 00000KT 9999 R11///// R29/P2000N // NCD 08/04 Q1000 RMK WIND 700FT 00000KT
  • 050250Z AUTO VRB03KT 9999 R11///// R29/P2000N // NCD 07/04 Q1001 RMK WIND 700FT VRB03KT
  • 050220Z AUTO VRB03KT 9999 R11///// R29/P2000N // NCD 07/04 Q1001 RMK WIND 700FT VRB03KT
  • 050150Z AUTO VRB02KT 9999 R11///// R29/P2000N // NCD 06/04 Q1001 RMK WIND 700FT VRB02KT
  • 050120Z AUTO VRB03KT 9999 R11///// R29/P2000N // NCD 05/04 Q1001 RMK WIND 700FT VRB02KT
  • 050050Z AUTO VRB01KT 9999 R11///// R29/P2000N // NCD 06/04 Q1001 RMK WIND 700FT VRB03KT

Expired Forecast.



MET'MAP, your aeronautical weather chart ! - Copyright ORBIFLY December 2007 - Disclaimer

ORBIFLY MET'MAP TEAM :

Programming & Development : Alexandra Zaïnal
Concept & original design : Baudouin d'Aumeries
Assistance for programming : Marc-Olivier Méhu
Technical & hardware support : Manuel Goepfert

Contact : metmap@orbifly.com




SOURCES & CREDITS :

   NOAA